Latest Weather Observations for Tasman Island

IDT60901

Issued at 9:01 pm EST Friday 20 May 2022 (issued every 10 minutes, with the page automatically refreshed every 10 minutes)

About weather observations | Map of Hobart area stations | Latest observations for Hobart area | Other Formats
Station Details ID: 094155 Name: TASMAN ISLAND Lat: -43.24 Lon: 148.00 Height: 240.0 m
Data from the previous 72 hours. | See also: Recent months at Tasman Island
Date/Time
EST
Temp
°C
App
Temp
°C
Dew
Point
°C
Rel
Hum
%
Delta-T
°C
Wind Press
QNH
hPa
Press
MSL
hPa
Rain since
9am
mm
Dir  Spd
km/h
Gust
km/h
Spd
kts
Gust
kts
20/09:00pm 9.0 4.5 7.1 88 0.9 SSW 20 37 11 20 1034.9 1035.2 0.4
20/08:30pm 9.0 5.4 6.8 86 1.0 SW 15 32 8 17 1034.6 1034.8 0.4
20/08:00pm 9.4 5.9 7.2 86 1.0 SSW 15 39 8 21 1034.4 1034.6 0.4
20/07:30pm 9.0 4.5 7.0 87 0.9 SSW 20 35 11 19 1034.4 1034.6 0.4
20/07:00pm 8.9 4.6 7.2 89 0.8 SSW 19 28 10 15 1034.5 1034.7 0.2
20/06:30pm 8.9 4.1 7.2 89 0.8 SSW 22 32 12 17 1034.4 1034.6 0.2
20/06:00pm 9.1 6.0 7.4 89 0.8 SW 13 30 7 16 1034.3 1034.5 0.2
20/05:30pm 8.8 3.2 7.1 89 0.8 SSW 26 41 14 22 1034.0 1034.2 0.2
20/05:00pm 9.0 5.8 6.8 86 1.0 SSW 13 35 7 19 1033.9 1034.1 0.2
20/04:30pm 8.9 5.9 7.8 93 0.5 SW 13 35 7 19 1033.7 1033.9 0.2
20/04:00pm 8.4 3.3 7.5 94 0.4 SSW 24 35 13 19 1033.7 1033.9 0.2
20/03:30pm 9.8 6.3 7.4 85 1.2 SW 15 32 8 17 1033.5 1033.7 0.0
20/03:00pm 9.9 6.9 7.5 85 1.1 SW 13 26 7 14 1033.3 1033.5 0.0
20/02:30pm 9.6 6.3 7.9 89 0.8 SW 15 39 8 21 1033.1 1033.3 0.0
20/02:00pm 10.4 7.4 7.8 84 1.3 SSW 13 28 7 15 1033.0 1033.2 0.0
20/01:30pm 10.2 5.2 6.5 78 1.8 SSW 22 37 12 20 1032.9 1033.1 0.0
20/01:00pm 9.5 5.7 7.6 88 0.9 SW 17 33 9 18 1032.8 1033.0 0.0
20/12:30pm 9.4 5.5 7.3 87 1.0 SSW 17 33 9 18 1033.0 1033.2 0.0
20/12:00pm 9.0 4.1 8.4 96 0.3 SSW 24 39 13 21 1033.3 1033.5 0.0
20/11:30am 9.6 7.1 8.4 92 0.6 SW 11 32 6 17 1033.4 1033.6 0.0
20/11:00am 9.7 5.8 7.1 84 1.2 SSW 17 32 9 17 1033.3 1033.5 0.0
20/10:30am 9.8 5.3 7.1 83 1.3 SSW 20 39 11 21 1033.1 1033.3 0.0
20/10:00am 9.1 4.5 6.7 85 1.1 SSW 20 41 11 22 1033.0 1033.2 0.0
20/09:30am 9.6 5.4 7.4 86 1.1 SSW 19 33 10 18 1032.9 1033.1 0.0
20/09:00am 9.3 2.5 6.7 84 1.2 SSW 32 52 17 28 1032.7 1032.9 0.4
20/08:30am 9.2 3.1 6.6 84 1.2 SSW 28 52 15 28 1032.5 1032.7 0.4
20/08:00am 8.8 2.5 7.3 90 0.7 SSW 30 50 16 27 1032.2 1032.4 0.4
20/07:37am 8.6 2.7 7.5 93 0.5 SSW 28 46 15 25 1032.0 1032.2 0.4
20/07:30am 8.6 2.0 7.7 94 0.4 SSW 32 48 17 26 1031.8 1032.1 0.4
20/07:00am 8.6 1.9 8.0 96 0.3 SSW 33 56 18 30 1031.4 1031.7 0.4
20/06:30am 8.8 1.7 8.2 96 0.3 SSW 35 56 19 30 1031.2 1031.5 0.2
20/06:00am 8.8 1.4 8.2 96 0.3 SSW 37 57 20 31 1030.7 1030.9 0.2
20/05:37am 8.2 2.4 7.9 98 0.1 SSW 28 57 15 31 1030.4 1030.6 0.2
20/05:30am 8.7 4.7 8.4 98 0.1 SW 19 44 10 24 1030.3 1030.5 0.2
20/05:00am 8.5 1.4 7.9 96 0.3 SSW 35 61 19 33 1030.2 1030.4 0.2
20/04:38am 8.6 2.9 8.2 97 0.2 SSW 28 56 15 30 1029.9 1030.1 0.2
20/04:30am 8.4 3.4 8.0 97 0.2 SW 24 44 13 24 1029.7 1029.9 0.2
20/04:13am 8.5 2.6 7.7 95 0.4 SW 28 59 15 32 1029.7 1029.9 0.2
20/04:00am 8.9 4.5 7.2 89 0.8 SW 20 43 11 23 1029.7 1029.9 0.2
20/03:40am 9.3 3.6 6.7 84 1.2 SW 26 57 14 31 1029.3 1029.5 0.2
20/03:30am 9.1 5.4 6.5 84 1.2 SSW 15 41 8 22 1029.6 1029.8 0.2
20/03:00am 9.0 3.3 6.8 86 1.0 WSW 26 59 14 32 1029.4 1029.6 0.2
20/02:30am 8.7 2.7 7.2 90 0.7 SSW 28 67 15 36 1029.1 1029.3 0.2
20/02:16am 9.2 3.1 6.8 85 1.1 SSW 28 69 15 37 1029.0 1029.2 0.2
20/02:00am 9.2 4.1 5.8 79 1.6 SW 22 57 12 31 1029.0 1029.2 0.2
20/01:30am 9.0 4.1 7.0 87 0.9 SW 22 52 12 28 1029.0 1029.2 0.2
20/01:00am 8.5 3.9 6.6 88 0.9 SW 20 50 11 27 1028.9 1029.1 0.2
20/12:30am 8.4 3.5 7.0 91 0.7 SW 22 57 12 31 1028.9 1029.1 0.2
20/12:00am 9.4 2.9 4.6 72 2.1 SSW 28 57 15 31 1028.7 1028.9 0.2
 
Date/Time
EST
Temp
°C
App
Temp
°C
Dew
Point
°C
Rel
Hum
%
Delta-T
°C
Wind Press
QNH
hPa
Press
MSL
hPa
Rain since
9am
mm
Dir  Spd
km/h
Gust
km/h
Spd
kts
Gust
kts
19/11:34pm 9.2 2.8 5.4 77 1.7 SW 28 69 15 37 1028.4 1028.6 0.0
19/11:30pm 9.2 4.2 6.3 82 1.4 SW 22 54 12 29 1028.5 1028.7 0.0
19/11:09pm 8.9 2.6 5.6 80 1.5 SW 28 61 15 33 1028.3 1028.5 0.0
19/11:00pm 9.0 3.8 5.6 79 1.6 SW 22 61 12 33 1028.2 1028.4 0.0
19/10:32pm 9.3 2.7 4.1 70 2.3 SW 28 67 15 36 1028.4 1028.6 0.0
19/10:30pm 9.4 3.2 4.2 70 2.3 SW 26 67 14 36 1028.2 1028.4 0.0
19/10:08pm 9.3 2.8 4.5 72 2.2 SW 28 63 15 34 1028.0 1028.2 0.0
19/10:00pm 9.6 3.5 5.0 73 2.1 SW 26 56 14 30 1028.0 1028.2 0.0
19/09:30pm 9.6 3.0 4.2 69 2.4 SSW 28 67 15 36 1027.8 1028.0 0.0
19/09:00pm 9.7 3.2 4.5 70 2.3 SSW 28 65 15 35 1027.1 1027.3 0.0
19/08:40pm 9.7 3.4 5.9 77 1.8 SW 28 57 15 31 1027.0 1027.2 0.0
19/08:30pm 9.6 3.7 6.0 78 1.7 SW 26 65 14 35 1026.8 1027.0 0.0
19/08:06pm 9.6 3.0 4.2 69 2.4 SW 28 57 15 31 1026.7 1026.9 0.0
19/08:00pm 9.6 3.8 4.6 71 2.2 SW 24 54 13 29 1026.6 1026.8 0.0
19/07:33pm 9.5 2.8 3.5 66 2.6 SW 28 59 15 32 1026.3 1026.5 0.0
19/07:30pm 9.5 3.2 3.5 66 2.6 SW 26 57 14 31 1026.3 1026.5 0.0
19/07:00pm 9.7 3.2 4.5 70 2.3 SSW 28 76 15 41 1025.6 1025.8 0.0
19/06:30pm 9.5 1.9 3.0 64 2.8 SW 32 59 17 32 1025.4 1025.6 0.0
19/06:00pm 9.6 2.3 4.6 71 2.2 SSW 32 65 17 35 1024.8 1025.0 0.0
19/05:45pm 9.6 2.2 3.8 67 2.6 SSW 32 80 17 43 1024.5 1024.7 0.0
19/05:30pm 9.7 3.0 3.9 67 2.6 SW 28 59 15 32 1024.4 1024.6 0.0
19/05:00pm 9.5 2.8 3.9 68 2.5 SSW 28 70 15 38 1023.8 1023.9 0.0
19/04:30pm 9.1 -0.9 6.0 81 1.4 SSW 48 78 26 42 1023.3 1023.4 0.0
19/04:00pm 9.1 -1.2 4.5 73 2.1 SSW 48 78 26 42 1023.2 1023.3 0.0
19/03:30pm 9.3 -2.5 4.9 74 2.0 SSW 56 82 30 44 1022.5 1022.7 0.0
19/03:00pm 9.3 -2.6 4.1 70 2.3 SSW 56 85 30 46 1022.1 1022.3 0.0
19/02:30pm 9.7 -1.1 3.9 67 2.6 SSW 50 82 27 44 1021.5 1021.7 0.0
19/02:00pm 9.6 -2.3 4.4 70 2.3 SSW 56 85 30 46 1021.4 1021.6 0.0
19/01:30pm 9.9 -1.9 3.0 62 3.0 SSW 54 89 29 48 1020.8 1021.0 0.0
19/01:28pm 10.0 -1.4 2.8 61 3.1 SSW 52 89 28 48 1020.8 1021.0 0.0
19/01:23pm 9.8 -1.4 3.8 66 2.7 SSW 52 91 28 49 1020.8 1021.0 0.0
19/01:00pm 9.6 -3.3 4.0 68 2.5 SSW 61 93 33 50 1020.4 1020.5 0.0
19/12:30pm 9.6 -3.0 3.6 66 2.6 SSW 59 91 32 49 1019.8 1019.9 0.0
19/12:00pm 10.0 -2.7 3.1 62 3.0 SSW 59 93 32 50 1019.7 1019.8 0.0
19/11:46am 9.8 -1.9 3.5 65 2.8 SSW 54 87 29 47 1019.6 1019.7 0.0
19/11:38am 9.4 -3.8 4.6 72 2.2 SSW 63 96 34 52 1019.7 1019.8 0.0
19/11:32am 9.1 -3.1 3.7 69 2.4 SSW 57 96 31 52 1019.4 1019.5 0.0
19/11:30am 9.5 -2.0 4.5 71 2.3 SSW 54 96 29 52 1019.5 1019.6 0.0
19/11:00am 9.9 -3.4 4.1 67 2.6 SSW 63 98 34 53 1019.1 1019.2 0.0
19/10:30am 9.8 -3.9 4.0 67 2.6 SSW 65 95 35 51 1018.7 1018.9 0.0
19/10:20am 9.8 0.0 5.4 74 2.0 SSW 46 96 25 52 1018.5 1018.7 0.0
19/10:06am 9.6 -1.7 5.6 76 1.8 SSW 54 87 29 47 1018.3 1018.5 0.0
19/10:00am 9.5 -2.8 5.3 75 1.9 SSW 59 87 32 47 1018.3 1018.5 0.0
19/09:30am 9.3 -3.6 5.7 78 1.7 SSW 63 93 34 50 1017.7 1017.9 0.0
19/09:21am 9.8 -0.7 5.8 76 1.9 SSW 50 93 27 50 1017.2 1017.4 0.0
19/09:08am 8.7 -4.9 6.2 84 1.2 SSW 67 104 36 56 1017.3 1017.5 0.0
19/09:00am 9.0 -4.3 5.6 79 1.6 SSW 65 106 35 57 1016.9 1017.0 0.6
19/08:56am 9.3 -2.3 5.9 79 1.6 SSW 56 106 30 57 1016.8 1016.9 0.6
19/08:54am 9.9 -0.7 6.8 81 1.5 SSW 52 95 28 51 1016.7 1016.8 0.6
19/08:44am 9.4 -3.1 6.1 80 1.5 SSW 61 98 33 53 1016.8 1016.9 0.6
19/08:32am 9.6 -1.4 5.2 74 2.0 SSW 52 91 28 49 1016.5 1016.6 0.6
19/08:30am 9.5 -1.1 5.1 74 2.0 SSW 50 89 27 48 1016.5 1016.6 0.6
19/08:25am 9.5 -2.2 6.2 80 1.5 SSW 57 93 31 50 1016.5 1016.6 0.6
19/08:11am 9.6 -1.8 6.7 82 1.4 SSW 56 96 30 52 1015.9 1016.0 0.6
19/08:00am 9.5 0.6 6.9 84 1.2 SSW 43 85 23 46 1015.8 1015.9 0.6
19/07:30am 9.5 1.8 7.1 85 1.1 SW 37 82 20 44 1014.8 1014.9 0.6
19/07:00am 8.8 -0.5 7.4 91 0.7 SW 46 104 25 56 1013.8 1014.0 0.6
19/06:54am 8.9 0.8 7.0 88 0.9 SW 39 104 21 56 1013.6 1013.7 0.6
19/06:51am 9.6 2.6 6.9 83 1.3 SW 33 83 18 45 1013.7 1013.9 0.6
19/06:30am 9.4 3.9 5.9 79 1.6 SW 24 61 13 33 1013.9 1014.1 0.6
19/06:00am 8.9 2.0 6.3 84 1.2 WSW 32 80 17 43 1014.1 1014.3 0.6
19/05:30am 9.0 1.4 5.6 79 1.6 WSW 35 82 19 44 1013.3 1013.4 0.6
19/05:00am 9.0 1.9 5.7 80 1.5 WSW 32 76 17 41 1013.1 1013.2 0.6
19/04:46am 8.7 3.0 5.1 78 1.6 WSW 24 65 13 35 1013.4 1013.5 0.6
19/04:30am 8.9 4.6 5.1 77 1.7 W 17 54 9 29 1013.6 1013.7 0.6
19/04:00am 8.7 4.3 4.9 77 1.7 WNW 17 44 9 24 1013.2 1013.3 0.6
19/03:30am 9.0 4.1 5.0 76 1.8 WSW 20 54 11 29 1012.8 1012.9 0.4
19/03:00am 8.4 3.9 6.0 85 1.1 WNW 19 57 10 31 1012.6 1012.7 0.4
19/02:47am 8.4 2.9 5.7 83 1.2 WSW 24 70 13 38 1012.8 1012.9 0.4
19/02:30am 8.4 0.4 5.7 83 1.2 SW 37 78 20 42 1012.5 1012.6 0.4
19/02:00am 9.2 1.3 4.2 71 2.2 SW 35 76 19 41 1012.6 1012.7 0.4
19/01:30am 9.2 1.5 5.2 76 1.8 SW 35 80 19 43 1012.5 1012.6 0.4
19/01:00am 8.7 1.5 5.1 78 1.6 WSW 32 85 17 46 1012.6 1012.7 0.4
19/12:56am 9.1 1.9 5.1 76 1.8 WSW 32 85 17 46 1012.2 1012.3 0.4
19/12:39am 8.8 4.4 6.4 85 1.1 WNW 19 61 10 33 1012.5 1012.6 0.4
19/12:30am 8.2 3.0 7.1 93 0.5 W 24 83 13 45 1012.3 1012.4 0.4
19/12:00am 8.8 1.2 5.7 81 1.4 SW 35 69 19 37 1011.8 1011.9 0.4
 
Date/Time
EST
Temp
°C
App
Temp
°C
Dew
Point
°C
Rel
Hum
%
Delta-T
°C
Wind Press
QNH
hPa
Press
MSL
hPa
Rain since
9am
mm
Dir  Spd
km/h
Gust
km/h
Spd
kts
Gust
kts
18/11:30pm 8.7 1.2 6.3 85 1.1 SW 35 69 19 37 1011.4 1011.5 0.4
18/11:00pm 8.7 0.9 6.5 86 1.0 WSW 37 72 20 39 1011.0 1011.1 0.4
18/10:30pm 8.4 1.6 6.9 90 0.7 SW 32 76 17 41 1011.1 1011.2 0.4
18/10:07pm 7.8 1.7 6.6 92 0.6 SW 28 83 15 45 1010.6 1010.7 0.2
18/10:00pm 7.9 2.4 6.0 88 0.9 WSW 24 59 13 32 1010.9 1011.0 0.2
18/09:30pm 8.4 1.6 6.7 89 0.8 SW 32 67 17 36 1010.7 1010.8 0.2
18/09:00pm 8.0 1.8 6.0 87 0.9 SW 28 65 15 35 1010.7 1010.8 0.2
18/08:55pm 7.8 2.0 6.1 89 0.8 SW 26 63 14 34 1010.6 1010.7 0.2
18/08:30pm 8.2 2.8 6.5 89 0.8 WSW 24 70 13 38 1009.9 1010.0 0.2
18/08:00pm 8.1 1.1 5.9 86 1.0 SW 32 78 17 42 1009.5 1009.6 0.2
18/07:53pm 7.9 1.6 5.9 87 0.9 SW 28 65 15 35 1009.6 1009.7 0.2
18/07:30pm 7.9 3.1 5.7 86 1.0 W 20 57 11 31 1008.9 1009.0 0.2
18/07:08pm 8.6 4.0 5.5 81 1.4 WSW 19 67 10 36 1008.6 1008.7 0.2
18/07:00pm 8.5 3.3 5.4 81 1.4 SW 22 67 12 36 1008.5 1008.6 0.2
18/06:30pm 8.4 1.2 5.0 79 1.5 SW 32 76 17 41 1008.0 1008.1 0.2
18/06:00pm 8.6 2.2 5.2 79 1.5 SW 28 65 15 35 1007.6 1007.7 0.2
18/05:30pm 9.3 1.0 2.4 62 3.0 SW 35 76 19 41 1007.3 1007.4 0.2
18/05:00pm 9.4 0.8 2.5 62 3.0 WSW 37 80 20 43 1007.1 1007.2 0.0
18/04:30pm 9.4 0.6 3.8 68 2.5 WSW 39 76 21 41 1006.0 1006.0 0.0
18/04:00pm 9.5 1.8 3.3 65 2.7 WSW 33 80 18 43 1006.0 1006.0 0.0
18/03:47pm 9.5 2.2 4.3 70 2.3 WSW 32 93 17 50 1005.4 1005.5 0.0
18/03:30pm 9.3 0.6 2.2 61 3.0 WSW 37 74 20 40 1005.1 1005.2 0.0
18/03:06pm 9.3 3.0 3.5 67 2.5 WSW 26 72 14 39 1004.7 1004.8 0.0
18/03:00pm 9.5 2.9 4.3 70 2.3 WSW 28 74 15 40 1004.6 1004.7 0.0
18/02:30pm 8.9 2.2 5.6 80 1.5 SW 30 67 16 36 1004.0 1004.1 0.0
18/02:05pm 7.3 0.8 4.8 84 1.1 SW 28 61 15 33 1003.3 1003.4 0.0
18/02:00pm 9.0 2.2 5.0 76 1.8 WSW 30 70 16 38 1002.9 1002.9 0.0
18/01:30pm 9.3 2.0 4.7 73 2.1 WSW 32 69 17 37 1002.7 1002.7 0.0
18/01:07pm 8.8 2.8 5.4 79 1.6 SW 26 85 14 46 1002.8 1002.8 0.0
18/01:02pm 8.7 3.9 5.4 80 1.5 WSW 20 57 11 31 1002.8 1002.8 0.0
18/01:00pm 8.6 3.9 5.2 79 1.6 WSW 19 57 10 31 1002.7 1002.7 0.0
18/12:30pm 8.8 1.5 4.6 75 1.9 WSW 32 72 17 39 1002.5 1002.5 0.0
18/12:00pm 8.7 2.1 6.0 83 1.3 WSW 30 72 16 39 1002.0 1002.0 0.0
18/11:41am 9.3 4.0 4.9 74 2.0 W 22 69 12 37 1001.7 1001.7 0.0
18/11:30am 9.0 4.2 5.7 80 1.5 W 20 59 11 32 1001.6 1001.6 0.0
18/11:23am 8.8 4.1 6.1 83 1.3 W 20 67 11 36 1001.6 1001.6 0.0
18/11:00am 8.5 4.8 6.3 86 1.0 W 15 44 8 24 1001.6 1001.6 0.0
18/10:30am 7.5 3.3 5.6 88 0.9 WSW 17 57 9 31 1001.7 1001.7 0.0
18/10:00am 8.4 3.9 4.4 76 1.8 SW 17 46 9 25 1000.8 1000.9 0.0
18/09:30am 8.4 3.9 4.2 75 1.9 SW 17 50 9 27 1000.9 1001.0 0.0
18/09:21am 8.7 3.8 4.1 73 2.0 WNW 19 67 10 36 1000.4 1000.5 0.0
18/09:00am 8.5 4.7 4.1 74 2.0 SW 13 44 7 24 1000.5 1000.6 0.4
18/08:30am 8.7 3.1 3.3 69 2.3 W 22 57 12 31 1000.3 1000.4 0.4
18/08:00am 8.3 0.8 3.4 71 2.1 WNW 32 56 17 30 1000.1 1000.2 0.2
18/07:30am 8.0 0.3 3.5 73 2.0 WNW 33 54 18 29 999.5 999.5 0.2
18/07:00am 7.9 0.4 3.2 72 2.0 WNW 32 63 17 34 999.7 999.8 0.2
18/06:30am 7.6 -3.6 2.1 68 2.3 WNW 50 74 27 40 1000.0 1000.1 0.2
18/06:00am 7.6 -2.8 2.3 69 2.2 WNW 46 76 25 41 999.9 1000.0 0.2
18/05:46am 7.9 0.7 3.2 72 2.0 WNW 30 63 16 34 1000.1 1000.2 0.2
18/05:30am 7.8 0.2 2.7 70 2.2 WNW 32 70 17 38 999.8 999.9 0.2
18/05:16am 7.9 -1.0 3.0 71 2.1 WNW 39 69 21 37 1000.0 1000.1 0.2
18/05:08am 7.8 0.9 2.7 70 2.2 WNW 28 48 15 26 1000.1 1000.2 0.2
18/05:00am 7.9 2.5 2.6 69 2.3 WNW 20 52 11 28 1000.2 1000.3 0.2
18/04:32am 7.7 0.9 3.2 73 1.9 WNW 28 48 15 26 1000.4 1000.5 0.2
18/04:30am 7.8 1.4 3.3 73 1.9 WNW 26 48 14 26 1000.4 1000.5 0.2
18/04:08am 7.7 -0.4 3.0 72 2.0 WNW 35 54 19 29 1000.3 1000.4 0.2
18/04:00am 7.7 -1.2 3.0 72 2.0 WNW 39 57 21 31 1000.4 1000.5 0.2
18/03:53am 7.8 -0.7 3.3 73 1.9 WNW 37 57 20 31 1000.4 1000.5 0.2
18/03:30am 7.9 2.6 3.0 71 2.1 WNW 20 50 11 27 1000.3 1000.4 0.2
18/03:00am 7.8 -2.0 2.1 67 2.4 WNW 43 63 23 34 1000.5 1000.6 0.2
18/02:33am 7.8 -0.7 3.1 72 2.0 WNW 37 57 20 31 1001.0 1001.1 0.2
18/02:30am 7.8 0.0 2.9 71 2.1 WNW 33 57 18 31 1001.0 1001.1 0.2
18/02:00am 7.6 -0.1 3.3 74 1.9 WNW 33 52 18 28 1001.0 1001.1 0.2
18/01:30am 7.7 -0.4 3.4 74 1.9 WNW 35 56 19 30 1001.1 1001.2 0.2
18/01:10am 7.7 0.9 3.0 72 2.0 WNW 28 59 15 32 1001.1 1001.2 0.2
18/01:00am 8.0 1.7 3.7 74 1.9 WNW 26 57 14 31 1001.0 1001.1 0.2
18/12:30am 7.7 -1.5 3.4 74 1.9 WNW 41 61 22 33 1001.0 1001.1 0.2
18/12:00am 8.2 -0.2 3.9 74 1.9 WNW 37 67 20 36 1000.8 1000.9 0.2
 
Date/Time
EST
Temp
°C
App
Temp
°C
Dew
Point
°C
Rel
Hum
%
Delta-T
°C
Wind Press
QNH
hPa
Press
MSL
hPa
Rain since
9am
mm
Dir  Spd
km/h
Gust
km/h
Spd
kts
Gust
kts
17/11:33pm 7.6 -2.1 3.1 73 1.9 WNW 43 61 23 33 1001.4 1001.4 0.2
17/11:30pm 7.7 -2.1 3.4 74 1.9 WNW 44 59 24 32 1001.5 1001.5 0.2
17/11:00pm 8.2 -3.2 2.9 69 2.3 WNW 52 76 28 41 1001.6 1001.6 0.2
17/10:30pm 8.5 -1.3 3.1 69 2.3 WNW 44 65 24 35 1001.6 1001.6 0.2
17/10:00pm 8.3 -1.0 3.2 70 2.2 WNW 41 63 22 34 1002.0 1002.0 0.2
17/09:30pm 8.7 1.0 3.3 69 2.3 WNW 33 54 18 29 1002.2 1002.2 0.2
17/09:24pm 8.9 0.5 3.5 69 2.4 WNW 37 56 20 30 1002.2 1002.2 0.2

Latest Capital City Observations: Canberra | Sydney | Melbourne | Brisbane | Adelaide | Perth | Hobart | Darwin

Other formats

Comma delimited format used in spreadsheet applications
http://www.bom.gov.au/fwo/IDT60901/IDT60901.95986.axf

JavaScript Object Notation format (JSON) in row-major order
http://www.bom.gov.au/fwo/IDT60901/IDT60901.95986.json

Data quality

Most of these data are generated automatically and are frequently updated. Quality checks on data are not normally performed. It is possible for incorrect values to appear. Refer to information at About Latest Weather Observations and please check the disclaimer before using these data.